createdAt,value
2018-08-30T00:00:20.922Z,14.13
2018-08-30T00:02:23.167Z,11.83
2018-08-30T00:04:25.321Z,13.40
2018-08-30T00:06:27.460Z,13.93
2018-08-30T00:08:29.629Z,16.00
2018-08-30T00:10:31.861Z,16.80
2018-08-30T00:12:34.069Z,15.43
2018-08-30T00:14:36.251Z,13.47
2018-08-30T00:16:38.483Z,14.10
2018-08-30T00:18:40.698Z,16.90
2018-08-30T00:20:42.837Z,14.70
2018-08-30T00:22:44.969Z,15.03
2018-08-30T00:24:53.821Z,15.57
2018-08-30T00:26:55.951Z,16.97
2018-08-30T00:28:58.081Z,14.00
2018-08-30T00:31:00.510Z,13.40
2018-08-30T00:33:02.827Z,13.87
2018-08-30T00:35:05.406Z,16.90
2018-08-30T00:37:08.118Z,12.80
2018-08-30T00:39:10.350Z,15.67
2018-08-30T00:41:12.553Z,15.53
2018-08-30T00:43:15.103Z,15.27
2018-08-30T00:45:17.250Z,16.63
2018-08-30T00:47:19.370Z,14.53
2018-08-30T00:49:21.647Z,20.90
2018-08-30T00:51:23.843Z,14.60
2018-08-30T00:53:26.111Z,17.10
2018-08-30T00:55:28.304Z,14.10
2018-08-30T00:57:30.454Z,14.27
2018-08-30T00:59:32.619Z,14.70
2018-08-30T01:01:35.099Z,15.03
2018-08-30T01:03:37.232Z,18.33
2018-08-30T01:05:39.641Z,16.80
2018-08-30T01:07:41.788Z,25.30
2018-08-30T01:09:43.942Z,14.00
2018-08-30T01:11:46.703Z,14.40
2018-08-30T01:13:48.860Z,14.73
2018-08-30T01:15:51.029Z,19.17
2018-08-30T01:17:53.518Z,17.40
2018-08-30T01:19:55.654Z,15.47
2018-08-30T01:21:58.536Z,17.87
2018-08-30T01:24:00.698Z,14.53
2018-08-30T01:26:02.872Z,17.47
2018-08-30T01:28:05.066Z,16.60
2018-08-30T01:30:07.551Z,14.90
2018-08-30T01:32:09.754Z,19.20
2018-08-30T01:34:12.906Z,18.97
2018-08-30T01:36:15.043Z,17.03
2018-08-30T01:38:17.189Z,16.60
2018-08-30T01:40:19.587Z,18.20
2018-08-30T01:42:21.793Z,15.60
2018-08-30T01:44:23.962Z,15.87
2018-08-30T01:46:29.158Z,19.57
2018-08-30T01:48:31.360Z,18.40
2018-08-30T01:50:33.527Z,15.97
2018-08-30T01:52:35.675Z,16.30
2018-08-30T01:54:38.158Z,17.07
2018-08-30T01:56:40.805Z,17.27
2018-08-30T01:58:42.910Z,18.60
2018-08-30T02:00:45.080Z,16.67
2018-08-30T02:02:47.326Z,19.07
2018-08-30T02:04:49.500Z,16.50
2018-08-30T02:06:52.179Z,19.23
2018-08-30T02:08:54.322Z,13.83
2018-08-30T02:10:56.520Z,15.23
2018-08-30T02:12:59.098Z,17.77
2018-08-30T02:15:01.287Z,17.23
2018-08-30T02:17:03.967Z,14.60
2018-08-30T02:19:06.132Z,14.83
2018-08-30T02:21:08.298Z,15.00
2018-08-30T02:23:10.499Z,16.43
2018-08-30T02:25:12.683Z,17.57
2018-08-30T02:27:14.857Z,17.53
2018-08-30T02:29:17.034Z,17.53
2018-08-30T02:31:19.442Z,17.03
2018-08-30T02:33:21.583Z,18.00
2018-08-30T02:35:23.748Z,14.97
2018-08-30T02:37:26.031Z,16.10
2018-08-30T02:39:28.194Z,20.40
2018-08-30T02:41:30.513Z,19.93
2018-08-30T02:43:32.639Z,20.03
2018-08-30T02:45:34.862Z,21.30
2018-08-30T02:47:36.982Z,16.70
2018-08-30T02:49:39.145Z,21.03
2018-08-30T02:51:41.654Z,17.60
2018-08-30T02:53:43.850Z,20.47
2018-08-30T02:55:45.986Z,18.37
2018-08-30T02:57:48.550Z,22.30
2018-08-30T02:59:50.666Z,23.03
2018-08-30T03:01:52.818Z,21.87
2018-08-30T03:03:54.963Z,23.17
2018-08-30T03:05:57.105Z,22.87
2018-08-30T03:07:59.601Z,24.50
2018-08-30T03:10:02.039Z,22.23
2018-08-30T03:12:04.698Z,23.17
2018-08-30T03:14:06.809Z,26.70
2018-08-30T03:16:09.022Z,25.73
2018-08-30T03:18:11.239Z,21.87
2018-08-30T03:20:14.082Z,25.47
2018-08-30T03:22:16.250Z,22.50
2018-08-30T03:24:18.379Z,25.13
2018-08-30T03:26:20.520Z,25.57
2018-08-30T03:28:22.676Z,23.00
2018-08-30T03:30:25.045Z,25.33
2018-08-30T03:32:27.003Z,21.60
2018-08-30T03:34:29.556Z,29.17
2018-08-30T03:36:31.969Z,21.23
2018-08-30T03:38:34.123Z,23.20
2018-08-30T03:40:36.425Z,23.83
2018-08-30T03:42:38.553Z,21.43
2018-08-30T03:44:40.702Z,23.80
2018-08-30T03:46:42.963Z,23.70
2018-08-30T03:48:45.087Z,22.83
2018-08-30T03:50:47.259Z,21.83
2018-08-30T03:52:49.411Z,21.20
2018-08-30T03:54:51.534Z,22.43
2018-08-30T03:56:53.651Z,22.83
2018-08-30T03:58:55.818Z,22.70
2018-08-30T04:00:57.951Z,25.83
2018-08-30T04:03:00.170Z,25.07
2018-08-30T04:05:02.589Z,26.30
2018-08-30T04:07:04.920Z,22.73
2018-08-30T04:09:07.710Z,21.93
2018-08-30T04:11:09.952Z,22.73
2018-08-30T04:13:12.159Z,25.13
2018-08-30T04:15:14.304Z,20.87
2018-08-30T04:17:16.478Z,25.10
2018-08-30T04:19:18.634Z,23.70
2018-08-30T04:21:20.773Z,20.17
2018-08-30T04:23:22.967Z,24.70
2018-08-30T04:25:25.121Z,20.67
2018-08-30T04:27:27.235Z,23.30
2018-08-30T04:29:29.773Z,23.17
2018-08-30T04:31:31.939Z,23.00
2018-08-30T04:33:34.094Z,20.90
2018-08-30T04:35:36.319Z,21.60
2018-08-30T04:37:38.462Z,20.93
2018-08-30T04:39:40.635Z,25.00
2018-08-30T04:41:42.765Z,22.60
2018-08-30T04:43:44.914Z,21.70
2018-08-30T04:45:47.078Z,24.27
2018-08-30T04:47:49.573Z,21.10
2018-08-30T04:49:52.789Z,20.10
2018-08-30T04:51:54.933Z,22.33
2018-08-30T04:53:57.134Z,20.80
2018-08-30T04:56:00.094Z,22.63
2018-08-30T04:58:02.242Z,21.77
2018-08-30T05:00:04.440Z,21.20
2018-08-30T05:02:06.818Z,20.80
2018-08-30T05:04:08.958Z,21.30
2018-08-30T05:06:11.136Z,19.20
2018-08-30T05:08:13.333Z,22.67
2018-08-30T05:10:15.603Z,20.40
2018-08-30T05:12:17.782Z,25.03
2018-08-30T05:14:20.018Z,21.70
2018-08-30T05:16:22.231Z,25.50
2018-08-30T05:18:24.359Z,25.90
2018-08-30T05:20:26.549Z,27.70
2018-08-30T05:22:28.767Z,23.33
2018-08-30T05:24:30.937Z,24.00
2018-08-30T05:26:33.077Z,28.00
2018-08-30T05:28:35.254Z,23.97
2018-08-30T05:30:37.415Z,25.93
2018-08-30T05:32:39.574Z,25.97
2018-08-30T05:34:41.724Z,27.33
2018-08-30T05:36:43.932Z,25.37
2018-08-30T05:38:46.415Z,25.67
2018-08-30T05:40:48.627Z,27.40
2018-08-30T05:42:50.790Z,25.27
2018-08-30T05:44:53.267Z,28.10
2018-08-30T05:46:55.454Z,24.63
2018-08-30T05:48:57.588Z,27.37
2018-08-30T05:50:59.741Z,25.83
2018-08-30T05:53:01.907Z,23.17
2018-08-30T05:55:04.051Z,24.47
2018-08-30T05:57:06.927Z,24.90
2018-08-30T05:59:09.066Z,29.70
2018-08-30T06:01:11.315Z,25.07
2018-08-30T06:03:13.443Z,25.50
2018-08-30T06:05:15.590Z,26.50
2018-08-30T06:07:17.953Z,25.63
2018-08-30T06:09:20.039Z,23.60
2018-08-30T06:11:22.187Z,29.30
2018-08-30T06:13:24.322Z,27.90
2018-08-30T06:15:26.442Z,26.13
2018-08-30T06:17:28.607Z,22.00
2018-08-30T06:19:30.783Z,23.77
2018-08-30T06:21:32.918Z,23.33
2018-08-30T06:23:35.323Z,24.87
2018-08-30T06:25:37.858Z,24.17
2018-08-30T06:27:39.999Z,23.03
2018-08-30T06:29:42.179Z,26.87
2018-08-30T06:31:44.309Z,25.40
2018-08-30T06:33:46.518Z,23.10
2018-08-30T06:35:48.672Z,23.63
2018-08-30T06:37:51.183Z,21.37
2018-08-30T06:39:53.539Z,20.07
2018-08-30T06:41:55.800Z,24.13
2018-08-30T06:43:57.934Z,21.63
2018-08-30T06:46:00.163Z,21.00
2018-08-30T06:48:02.292Z,24.37
2018-08-30T06:50:05.034Z,21.33
2018-08-30T06:52:07.166Z,24.40
2018-08-30T06:54:09.278Z,20.80
2018-08-30T06:56:11.449Z,20.30
2018-08-30T06:58:13.571Z,20.30
2018-08-30T07:00:15.723Z,21.10
2018-08-30T07:02:17.890Z,20.90
2018-08-30T07:04:20.070Z,20.10
2018-08-30T07:06:22.147Z,21.30
2018-08-30T07:08:24.549Z,18.17
2018-08-30T07:10:26.699Z,17.63
2018-08-30T07:12:28.854Z,18.73
2018-08-30T07:14:30.998Z,18.90
2018-08-30T07:16:33.629Z,21.37
2018-08-30T07:18:35.858Z,21.20
2018-08-30T07:20:38.019Z,21.03
2018-08-30T07:22:40.160Z,25.73
2018-08-30T07:24:42.299Z,23.87
2018-08-30T07:26:44.454Z,26.63
2018-08-30T07:28:46.579Z,25.70
2018-08-30T07:30:48.731Z,25.10
2018-08-30T07:32:50.873Z,25.83
2018-08-30T07:34:53.103Z,34.27
2018-08-30T07:36:55.106Z,28.27
2018-08-30T07:38:57.238Z,25.93
2018-08-30T07:40:59.387Z,25.57
2018-08-30T07:43:01.629Z,25.90
2018-08-30T07:45:03.811Z,24.10
2018-08-30T07:47:06.001Z,26.47
2018-08-30T07:49:08.881Z,26.03
2018-08-30T07:51:11.023Z,22.43
2018-08-30T07:53:13.163Z,22.93
2018-08-30T07:55:15.323Z,26.50
2018-08-30T07:57:17.478Z,24.30
2018-08-30T07:59:19.623Z,23.67
2018-08-30T08:01:21.773Z,23.37
2018-08-30T08:03:23.888Z,25.83
2018-08-30T08:05:26.014Z,27.23
2018-08-30T08:07:28.331Z,24.13
2018-08-30T08:09:30.490Z,29.90
2018-08-30T08:11:32.588Z,23.53
2018-08-30T08:13:34.779Z,25.83
2018-08-30T08:15:36.926Z,23.20
2018-08-30T08:17:39.079Z,26.63
2018-08-30T08:19:41.206Z,26.70
2018-08-30T08:21:43.355Z,23.70
2018-08-30T08:23:45.502Z,24.80
2018-08-30T08:25:47.638Z,23.30
2018-08-30T08:27:49.813Z,31.87
2018-08-30T08:29:51.978Z,25.87
2018-08-30T08:31:54.113Z,28.10
2018-08-30T08:33:56.542Z,24.20
2018-08-30T08:35:58.655Z,23.37
2018-08-30T08:38:00.802Z,24.40
2018-08-30T08:40:03.088Z,24.00
2018-08-30T08:42:05.454Z,24.00
2018-08-30T08:44:07.570Z,21.27
2018-08-30T08:46:09.720Z,23.07
2018-08-30T08:48:11.857Z,23.17
2018-08-30T08:50:14.026Z,22.00
2018-08-30T08:52:16.519Z,23.80
2018-08-30T08:54:18.630Z,21.07
2018-08-30T08:56:20.770Z,22.90
2018-08-30T08:58:22.946Z,24.77
2018-08-30T09:00:25.174Z,21.63
2018-08-30T09:02:27.314Z,20.80
2018-08-30T09:04:29.698Z,22.53
2018-08-30T09:06:31.808Z,20.57
2018-08-30T09:08:33.930Z,22.57
2018-08-30T09:10:36.094Z,20.13
2018-08-30T09:12:38.227Z,19.70
2018-08-30T09:14:40.360Z,21.73
2018-08-30T09:16:42.895Z,20.70
2018-08-30T09:18:45.077Z,21.27
2018-08-30T09:20:47.262Z,20.43
2018-08-30T09:22:49.441Z,20.70
2018-08-30T09:24:51.579Z,21.43
2018-08-30T09:26:53.770Z,20.47
2018-08-30T09:28:55.905Z,19.27
2018-08-30T09:30:58.341Z,19.87
2018-08-30T09:33:00.437Z,20.50
2018-08-30T09:35:02.586Z,20.37
2018-08-30T09:37:05.027Z,20.33
2018-08-30T09:39:07.682Z,19.90
2018-08-30T09:41:09.807Z,20.57
2018-08-30T09:43:12.290Z,18.00
2018-08-30T09:45:14.470Z,18.50
2018-08-30T09:47:16.635Z,19.73
2018-08-30T09:49:18.785Z,18.30
2018-08-30T09:51:20.922Z,19.00
2018-08-30T09:53:23.086Z,17.20
2018-08-30T09:55:25.367Z,17.27
2018-08-30T09:57:27.865Z,17.73
2018-08-30T09:59:29.924Z,19.10
2018-08-30T10:01:37.879Z,17.33
2018-08-30T10:03:40.147Z,19.10
2018-08-30T10:05:42.370Z,18.50
2018-08-30T10:07:45.469Z,18.17
2018-08-30T10:09:47.610Z,18.57
2018-08-30T10:11:49.738Z,19.50
2018-08-30T10:13:51.894Z,18.80
2018-08-30T10:15:54.329Z,19.13
2018-08-30T10:17:56.483Z,17.67
2018-08-30T10:19:58.610Z,19.50
2018-08-30T10:22:00.817Z,18.30
2018-08-30T10:24:02.973Z,18.70
2018-08-30T10:26:05.695Z,17.03
2018-08-30T10:28:07.891Z,17.60
2018-08-30T10:30:10.023Z,18.20
2018-08-30T10:32:12.179Z,17.43
2018-08-30T10:34:14.303Z,16.47
2018-08-30T10:36:16.463Z,20.23
2018-08-30T10:38:18.652Z,16.97
2018-08-30T10:40:20.971Z,18.53
2018-08-30T10:42:23.081Z,19.50
2018-08-30T10:44:25.178Z,16.87
2018-08-30T10:46:27.326Z,14.70
2018-08-30T10:48:29.495Z,13.90
2018-08-30T10:50:31.639Z,13.03
2018-08-30T10:52:33.791Z,14.57
2018-08-30T10:54:35.982Z,16.10
2018-08-30T10:56:38.153Z,16.57
2018-08-30T10:58:40.343Z,22.83
2018-08-30T11:00:42.498Z,36.93
2018-08-30T11:02:44.754Z,24.87
2018-08-30T11:04:47.140Z,20.10
2018-08-30T11:06:49.348Z,19.53
2018-08-30T11:08:51.500Z,19.10
2018-08-30T11:10:53.633Z,22.17
2018-08-30T11:12:55.844Z,21.13
2018-08-30T11:14:57.957Z,22.03
2018-08-30T11:17:00.095Z,19.13
2018-08-30T11:19:02.282Z,18.90
2018-08-30T11:21:04.425Z,22.47
2018-08-30T11:23:06.634Z,20.40
2018-08-30T11:25:08.826Z,24.20
2018-08-30T11:27:10.996Z,23.90
2018-08-30T11:29:13.132Z,19.90
2018-08-30T11:31:15.285Z,21.27
2018-08-30T11:33:17.419Z,18.37
2018-08-30T11:35:19.567Z,17.60
2018-08-30T11:37:21.695Z,19.60
2018-08-30T11:39:23.826Z,21.60
2018-08-30T11:41:26.018Z,17.80
2018-08-30T11:43:28.220Z,17.67
2018-08-30T11:45:30.263Z,16.97
2018-08-30T11:47:32.411Z,16.90
2018-08-30T11:49:34.542Z,20.20
2018-08-30T11:51:36.909Z,16.87
2018-08-30T11:53:39.226Z,18.30
2018-08-30T11:55:41.370Z,16.03
2018-08-30T11:57:43.831Z,17.93
2018-08-30T11:59:45.958Z,16.57
2018-08-30T12:01:48.122Z,15.90
2018-08-30T12:03:50.626Z,14.87
2018-08-30T12:05:52.970Z,15.83
2018-08-30T12:07:56.424Z,15.97
2018-08-30T12:09:58.520Z,17.90
2018-08-30T12:12:00.669Z,18.13
2018-08-30T12:14:03.178Z,15.70
2018-08-30T12:16:05.307Z,15.27
2018-08-30T12:18:07.470Z,17.73
2018-08-30T12:20:09.718Z,13.93
2018-08-30T12:22:11.858Z,15.33
2018-08-30T12:24:13.954Z,13.67
2018-08-30T12:26:16.375Z,14.20
2018-08-30T12:28:18.611Z,18.97
2018-08-30T12:30:20.748Z,14.10
2018-08-30T12:32:22.959Z,14.63
2018-08-30T12:34:25.078Z,14.17
2018-08-30T12:36:27.222Z,13.73
2018-08-30T12:38:29.424Z,12.00
2018-08-30T12:40:31.637Z,13.17
2018-08-30T12:42:33.809Z,12.23
2018-08-30T12:44:35.907Z,12.83
2018-08-30T12:46:38.091Z,10.80
2018-08-30T12:48:40.198Z,11.07
2018-08-30T12:50:42.533Z,12.40
2018-08-30T12:52:44.648Z,9.83
2018-08-30T12:54:46.651Z,10.20
2018-08-30T12:56:48.910Z,10.07
2018-08-30T12:59:54.421Z,11.10
2018-08-30T13:01:56.588Z,13.10
2018-08-30T13:03:58.792Z,10.20
2018-08-30T13:06:01.068Z,10.30
2018-08-30T13:08:03.206Z,10.10
2018-08-30T13:10:05.582Z,9.60
2018-08-30T13:12:08.197Z,10.60
2018-08-30T13:14:10.038Z,9.83
2018-08-30T13:16:12.023Z,9.17
2018-08-30T13:18:14.458Z,9.93
2018-08-30T13:20:16.746Z,10.97
2018-08-30T13:22:19.825Z,10.70
2018-08-30T13:24:21.953Z,10.10
2018-08-30T13:26:23.930Z,10.77
2018-08-30T13:28:26.090Z,10.93
2018-08-30T13:30:28.361Z,10.87
2018-08-30T13:32:30.491Z,11.90
2018-08-30T13:34:33.111Z,10.97
2018-08-30T13:36:34.983Z,13.10
2018-08-30T13:38:37.357Z,17.40
2018-08-30T13:40:39.479Z,12.93
2018-08-30T13:42:41.639Z,12.20
2018-08-30T13:44:43.751Z,14.30
2018-08-30T13:46:46.173Z,13.50
2018-08-30T13:48:48.105Z,15.40
2018-08-30T13:50:50.306Z,16.37
2018-08-30T13:52:52.514Z,13.70
2018-08-30T13:54:55.058Z,15.67
2018-08-30T13:56:57.283Z,17.00
2018-08-30T13:58:59.521Z,12.10
2018-08-30T14:01:01.684Z,13.77
2018-08-30T14:03:03.424Z,12.50
2018-08-30T14:05:06.029Z,12.13
2018-08-30T14:09:17.103Z,14.03
2018-08-30T14:11:19.279Z,12.20
2018-08-30T14:13:21.504Z,16.10
2018-08-30T14:15:23.889Z,13.93
2018-08-30T14:17:25.410Z,18.80
2018-08-30T14:19:27.551Z,11.60
2018-08-30T14:21:29.686Z,11.30
2018-08-30T14:23:31.878Z,14.73
2018-08-30T14:25:34.006Z,14.20
2018-08-30T14:27:36.138Z,13.07
2018-08-30T14:29:38.256Z,15.10
2018-08-30T14:31:40.722Z,12.77
2018-08-30T14:33:42.888Z,17.63
2018-08-30T14:35:45.049Z,12.10
2018-08-30T14:37:47.174Z,11.57
2018-08-30T14:39:49.331Z,15.40
2018-08-30T14:41:51.536Z,9.93
2018-08-30T14:43:53.618Z,11.90
2018-08-30T14:45:55.933Z,12.07
2018-08-30T14:47:58.147Z,15.33
2018-08-30T14:50:00.226Z,13.40
2018-08-30T14:52:02.434Z,10.73
2018-08-30T14:54:04.753Z,15.10
2018-08-30T14:56:06.849Z,12.77
2018-08-30T14:58:09.278Z,11.60
2018-08-30T15:00:11.441Z,10.53
2018-08-30T15:02:13.563Z,12.00
2018-08-30T15:04:15.650Z,13.90
2018-08-30T15:06:18.114Z,12.50
2018-08-30T15:08:20.235Z,10.47
2018-08-30T15:10:22.363Z,10.73
2018-08-30T15:12:25.270Z,10.47
2018-08-30T15:14:27.382Z,11.37
2018-08-30T15:16:29.513Z,11.27
2018-08-30T15:18:31.686Z,9.23
2018-08-30T15:20:34.394Z,10.50
2018-08-30T15:22:36.703Z,10.37
2018-08-30T15:24:38.714Z,13.50
2018-08-30T15:26:41.495Z,8.73
2018-08-30T15:28:50.151Z,17.43
2018-08-30T15:30:52.306Z,12.70
2018-08-30T15:32:54.455Z,12.47
2018-08-30T15:34:56.562Z,13.67
2018-08-30T15:36:58.702Z,11.60
2018-08-30T15:39:00.902Z,10.80
2018-08-30T15:41:03.061Z,11.67
2018-08-30T15:43:05.549Z,19.13
2018-08-30T15:45:07.679Z,8.87
2018-08-30T15:47:09.854Z,9.17
2018-08-30T15:49:11.982Z,12.57
2018-08-30T15:51:14.116Z,14.90
2018-08-30T15:53:16.486Z,13.13
2018-08-30T15:55:18.487Z,7.83
2018-08-30T15:57:20.773Z,6.70
2018-08-30T15:59:22.890Z,11.07
2018-08-30T16:01:24.913Z,12.97
2018-08-30T16:03:27.165Z,8.23
2018-08-30T16:05:29.410Z,12.23
2018-08-30T16:07:31.489Z,11.90
2018-08-30T16:09:33.671Z,8.57
2018-08-30T16:11:36.062Z,10.40
2018-08-30T16:13:38.186Z,14.50
2018-08-30T16:15:40.574Z,7.53
2018-08-30T16:17:43.142Z,9.40
2018-08-30T16:19:46.270Z,13.13
2018-08-30T16:21:48.392Z,9.63
2018-08-30T16:23:50.513Z,9.30
2018-08-30T16:25:52.633Z,12.67
2018-08-30T16:27:54.738Z,9.77
2018-08-30T16:29:57.273Z,10.70
2018-08-30T16:31:59.434Z,12.57
2018-08-30T16:34:01.573Z,7.90
2018-08-30T16:36:03.709Z,9.30
2018-08-30T16:38:05.836Z,11.20
2018-08-30T16:40:07.982Z,10.60
2018-08-30T16:42:10.129Z,7.30
2018-08-30T16:44:12.313Z,8.33
2018-08-30T16:46:14.420Z,8.90
2018-08-30T16:48:16.564Z,7.23
2018-08-30T16:50:18.799Z,9.60
2018-08-30T16:52:20.845Z,9.93
2018-08-30T16:54:22.961Z,9.20
2018-08-30T16:56:25.474Z,9.30
2018-08-30T16:58:27.506Z,8.17
2018-08-30T17:00:29.626Z,7.70
2018-08-30T17:02:32.319Z,9.10
2018-08-30T17:04:34.432Z,10.77
2018-08-30T17:06:36.638Z,9.10
2018-08-30T17:08:38.673Z,10.50
2018-08-30T17:10:40.799Z,14.37
2018-08-30T17:12:42.961Z,5.10
2018-08-30T17:14:45.100Z,11.90
2018-08-30T17:16:47.202Z,10.87
2018-08-30T17:18:51.137Z,11.00
2018-08-30T17:20:54.443Z,6.07
2018-08-30T17:22:56.587Z,10.70
2018-08-30T17:24:58.693Z,7.53
2018-08-30T17:27:00.820Z,11.93
2018-08-30T17:29:03.603Z,7.43
2018-08-30T17:31:05.862Z,7.40
2018-08-30T17:33:08.140Z,6.50
2018-08-30T17:35:10.268Z,12.40
2018-08-30T17:37:12.589Z,7.60
2018-08-30T17:39:14.581Z,13.60
2018-08-30T17:41:17.063Z,9.40
2018-08-30T17:43:19.205Z,6.90
2018-08-30T17:45:21.444Z,7.37
2018-08-30T17:47:23.606Z,17.50
2018-08-30T17:49:25.736Z,14.90
2018-08-30T17:51:27.901Z,15.07
2018-08-30T17:53:30.051Z,13.03
2018-08-30T17:55:32.307Z,12.80
2018-08-30T17:57:34.537Z,11.60
2018-08-30T17:59:36.655Z,12.10
2018-08-30T18:01:39.305Z,8.77
2018-08-30T18:03:41.624Z,12.60
2018-08-30T18:05:43.720Z,12.60
2018-08-30T18:07:45.842Z,14.17
2018-08-30T18:09:48.305Z,15.10
2018-08-30T18:11:50.840Z,15.03
2018-08-30T18:16:01.941Z,9.57
2018-08-30T18:18:04.279Z,14.90
2018-08-30T18:20:06.413Z,8.43
2018-08-30T18:22:08.571Z,12.17
2018-08-30T18:24:10.739Z,12.10
2018-08-30T18:26:12.921Z,11.57
2018-08-30T18:28:15.054Z,9.40
2018-08-30T18:30:17.386Z,8.43
2018-08-30T18:32:19.593Z,10.73
2018-08-30T18:34:21.746Z,11.73
2018-08-30T18:36:24.017Z,14.80
2018-08-30T18:38:26.178Z,9.67
2018-08-30T18:40:28.307Z,12.90
2018-08-30T18:42:30.494Z,16.80
2018-08-30T18:44:39.425Z,12.60
2018-08-30T18:46:41.546Z,9.77
2018-08-30T18:48:44.020Z,8.53
2018-08-30T18:50:46.144Z,11.50
2018-08-30T18:52:48.283Z,10.40
2018-08-30T18:54:50.417Z,8.37
2018-08-30T18:56:52.570Z,10.67
2018-08-30T18:58:55.014Z,8.97
2018-08-30T19:00:57.227Z,10.87
2018-08-30T19:02:59.390Z,10.00
2018-08-30T19:05:01.557Z,11.50
2018-08-30T19:07:04.426Z,8.53
2018-08-30T19:09:07.971Z,11.87
2018-08-30T19:11:10.122Z,12.27
2018-08-30T19:13:12.378Z,12.33
2018-08-30T19:15:20.219Z,12.10
2018-08-30T19:17:27.987Z,14.00
2018-08-30T19:19:33.493Z,9.17
2018-08-30T19:21:35.634Z,8.93
2018-08-30T19:23:37.793Z,7.30
2018-08-30T19:25:39.935Z,8.83
2018-08-30T19:27:43.282Z,11.77
2018-08-30T19:29:51.078Z,9.90
2018-08-30T19:31:53.239Z,8.53
2018-08-30T19:33:55.504Z,17.00
2018-08-30T19:36:03.490Z,19.27
2018-08-30T19:38:05.618Z,22.30
2018-08-30T19:40:12.417Z,16.17
2018-08-30T19:42:14.860Z,10.97
2018-08-30T19:44:17.011Z,14.40
2018-08-30T19:46:25.698Z,9.57
2018-08-30T19:48:27.962Z,6.30
2018-08-30T19:50:30.473Z,10.00
2018-08-30T19:52:32.753Z,10.37
2018-08-30T19:54:34.838Z,9.30
2018-08-30T19:56:36.946Z,14.60
2018-08-30T19:58:39.377Z,9.00
2018-08-30T20:00:41.568Z,13.90
2018-08-30T20:04:52.678Z,9.00
2018-08-30T20:06:54.872Z,10.10
2018-08-30T20:08:57.470Z,7.67
2018-08-30T20:10:59.664Z,10.60
2018-08-30T20:13:01.818Z,12.67
2018-08-30T20:15:04.047Z,11.83
2018-08-30T20:17:06.216Z,8.33
2018-08-30T20:19:08.420Z,6.23
2018-08-30T20:21:10.575Z,11.03
2018-08-30T20:23:12.890Z,8.33
2018-08-30T20:25:15.281Z,6.73
2018-08-30T20:27:17.436Z,6.40
2018-08-30T20:29:19.562Z,7.60
2018-08-30T20:31:21.937Z,12.30
2018-08-30T20:33:24.110Z,32.63
2018-08-30T20:35:26.278Z,30.83
2018-08-30T20:37:28.524Z,42.00
2018-08-30T20:39:30.684Z,13.33
2018-08-30T20:41:32.831Z,13.40
2018-08-30T20:43:35.534Z,9.43
2018-08-30T20:45:37.720Z,9.13
2018-08-30T20:47:46.482Z,14.03
2018-08-30T20:49:48.905Z,10.60
2018-08-30T20:51:51.482Z,12.90
2018-08-30T20:53:53.744Z,13.50
2018-08-30T20:55:55.897Z,10.10
2018-08-30T20:57:58.102Z,7.97
2018-08-30T21:00:00.442Z,7.40
2018-08-30T21:02:02.797Z,12.07
2018-08-30T21:04:04.995Z,14.30
2018-08-30T21:06:07.418Z,11.57
2018-08-30T21:08:09.595Z,9.17
2018-08-30T21:10:11.761Z,6.23
2018-08-30T21:12:13.930Z,7.97
2018-08-30T21:14:16.187Z,12.03
2018-08-30T21:16:18.426Z,11.30
2018-08-30T21:18:20.589Z,8.03
2018-08-30T21:20:22.829Z,7.70
2018-08-30T21:22:25.128Z,10.13
2018-08-30T21:24:27.278Z,5.80
2018-08-30T21:26:29.411Z,9.97
2018-08-30T21:28:31.578Z,17.20
2018-08-30T21:30:33.770Z,9.70
2018-08-30T21:32:35.955Z,14.07
2018-08-30T21:34:38.513Z,6.97
2018-08-30T21:36:40.644Z,8.60
2018-08-30T21:38:43.010Z,10.87
2018-08-30T21:40:45.171Z,10.80
2018-08-30T21:42:47.355Z,10.20
2018-08-30T21:44:49.852Z,5.73
2018-08-30T21:46:52.034Z,12.20
2018-08-30T21:48:54.286Z,8.47
2018-08-30T21:53:05.429Z,11.20
2018-08-30T21:55:07.778Z,8.47
2018-08-30T21:57:09.946Z,7.33
2018-08-30T21:59:12.162Z,5.00
2018-08-30T22:01:14.340Z,6.70
2018-08-30T22:03:16.998Z,37.17
2018-08-30T22:05:19.183Z,28.30
2018-08-30T22:07:21.379Z,22.93
2018-08-30T22:09:31.237Z,15.07
2018-08-30T22:11:33.544Z,18.17
2018-08-30T22:13:35.706Z,21.27
2018-08-30T22:15:37.973Z,20.00
2018-08-30T22:17:43.868Z,21.53
2018-08-30T22:19:45.999Z,23.63
2018-08-30T22:21:48.182Z,14.77
2018-08-30T22:23:58.495Z,12.20
2018-08-30T22:26:00.848Z,11.67
2018-08-30T22:28:03.099Z,9.53
2018-08-30T22:30:07.150Z,6.10
2018-08-30T22:32:09.323Z,13.13
2018-08-30T22:34:11.454Z,12.23
2018-08-30T22:36:13.834Z,13.50
2018-08-30T22:38:16.029Z,7.50
2018-08-30T22:40:18.240Z,14.60
2018-08-30T22:42:20.364Z,9.00
2018-08-30T22:44:22.526Z,9.00
2018-08-30T22:46:24.728Z,10.87
2018-08-30T22:48:26.887Z,8.43
2018-08-30T22:50:29.324Z,7.13
2018-08-30T22:52:31.551Z,5.63
2018-08-30T22:54:33.697Z,7.43
2018-08-30T22:56:35.846Z,5.20
2018-08-30T22:58:38.100Z,11.13
2018-08-30T23:00:40.348Z,9.33
2018-08-30T23:02:42.539Z,10.47
2018-08-30T23:04:44.713Z,7.70
2018-08-30T23:06:47.147Z,14.20
2018-08-30T23:08:49.270Z,10.13
2018-08-30T23:10:52.352Z,7.90
2018-08-30T23:12:54.570Z,7.93
2018-08-30T23:14:56.720Z,10.37
2018-08-30T23:16:59.171Z,8.10
2018-08-30T23:19:01.395Z,7.50
2018-08-30T23:21:03.634Z,7.60
2018-08-30T23:23:05.805Z,10.67
2018-08-30T23:25:08.018Z,11.30
2018-08-30T23:27:10.178Z,8.83
2018-08-30T23:29:12.754Z,6.70
2018-08-30T23:31:16.363Z,11.13
2018-08-30T23:33:18.653Z,14.07
2018-08-30T23:35:21.207Z,8.20
2018-08-30T23:37:23.410Z,5.10
2018-08-30T23:39:25.594Z,6.83
2018-08-30T23:41:27.726Z,12.03
2018-08-30T23:43:29.906Z,7.77
2018-08-30T23:45:32.038Z,10.90
2018-08-30T23:47:34.238Z,9.17
2018-08-30T23:49:36.410Z,9.70
2018-08-30T23:51:38.588Z,8.70
2018-08-30T23:53:40.792Z,10.37
2018-08-30T23:55:42.974Z,6.93
2018-08-30T23:57:56.830Z,9.97
